Forside
METAR-TAF:

METAR-TAF

Lufthavne :

Gibraltar Lufthavn

Gibraltar, Gibraltar

Breddekreds: 36-09N, længdekreds: 005-21W, højde: 5 m

Aktuelle vejr

Denne rapport blev lavet for 14 minutter siden, kl. 18:50 UTC
Vind 10 kt fra øst
Temperatur 25°C
Fugtighed 54%
Tryk 1015 hPa
Sigt 10 km eller mere
ingen skyer under 1500m og ingen cumulonimbus

METAR: LXGB 221850Z 09010KT CAVOK 25/15 Q1015 NOSIG

Tid: 21:04 (19:04 UTC)

Vejrudsigter

Denne rapport blev lavet for 2 timer og 43 minutter siden, kl. 16:21 UTC
Foreløbig gælder fra 22 på 18 UTC til 22 på 22 UTC
Vind 10 kt fra øst
Sigt 10 km eller mere
ingen skyer under 1500m og ingen cumulonimbus

TAF: LXGB 221621Z 2218/2222 10010KT CAVOK

Vejrobservationer og prognoser fra mere end 4000 lufthavne (METAR og TAF).

De gule og røde prikker repræsenterer de meteorologiske stationer.

Flyt musen over at se navnet på stationen.

Så klik over at se vejr observationer og prognoser.

At skifte det kort: Klik på de grønne knapper med et sort kors for at zoome ind; på den grønne knap med en bindestreg for at zoome ud; eller på de grønne pile for tilstødende kort.


METAR-TAF: